Hovedside
METAR-TAF:

METAR-TAF

Lufthavner :

Wellington internasjonale lufthavn

Wellington, New Zealand

breddegrad: 41-20S, lengdegrad: 174-48E, høyde over havet: 12 m

Gjeldene værobservasjon

Denne rapporten ble laget for 18 minutter siden, klokken 08:00 UTC
Vind 18 kt fra Nord
Temperatur 14°C
Luftfuktighet 82%
Trykk 1025 hPa
Sikt 10 km eller mer

METAR: NZWN 190800Z AUTO 01018KT 9999 NCD 14/11 Q1025 NOSIG

Tid: 21:18 (08:18 UTC)

Varsel

Denne rapporten ble laget for 3 timer og 13 minutter siden, klokken 05:05 UTC
Varsel gyldig fra 19. klokken 06 UTC til 20. klokken 06 UTC
Vind 20 kt fra Nord med vindkast opp mot 30 kt
Sikt 10 km eller mer
ingen skyer under 1500 m og ingen bygeskyer

TAF: NZWN 190505Z 1906/2006 36020G30KT CAVOK

Værobservasjoner og værvarsel for over 4000 flyplasser (METAR- og TAF-rapporter).

Tilgjengelige stasjoner er representert av de røde og gule prikkene på kartet.

Hold musepekeren over prikken for å se navnet på stasjonen.

Klikk så for å se værobservasjoner og -varsler.

For å forandre kartet kan du klikke på den grønne knappen med svart kryss for å zoome inn, på den grønne knappen med strek for å zoome ut, eller på de grønne pilene for å se tilstøtende kart.


METAR-TAF: